sensor_id;sensor_type;location;lat;lon;timestamp;P1;durP1;ratioP1;P2;durP2;ratioP2
43823;SDS011;29470;53.550;9.926;2022-10-31T00:01:16;36.67;;;20.63;;
43823;SDS011;29470;53.550;9.926;2022-10-31T00:06:21;34.50;;;19.42;;
43823;SDS011;29470;53.550;9.926;2022-10-31T00:11:25;37.42;;;20.50;;
43823;SDS011;29470;53.550;9.926;2022-10-31T00:16:28;36.55;;;20.08;;
43823;SDS011;29470;53.550;9.926;2022-10-31T00:21:33;36.42;;;19.10;;
43823;SDS011;29470;53.550;9.926;2022-10-31T00:26:37;33.35;;;19.92;;
43823;SDS011;29470;53.550;9.926;2022-10-31T00:31:39;32.58;;;19.42;;
43823;SDS011;29470;53.550;9.926;2022-10-31T00:36:44;33.97;;;19.65;;
43823;SDS011;29470;53.550;9.926;2022-10-31T00:41:47;35.20;;;19.95;;
43823;SDS011;29470;53.550;9.926;2022-10-31T00:46:50;36.35;;;19.88;;
43823;SDS011;29470;53.550;9.926;2022-10-31T00:51:57;36.65;;;20.98;;
43823;SDS011;29470;53.550;9.926;2022-10-31T00:57:00;39.75;;;22.15;;
43823;SDS011;29470;53.550;9.926;2022-10-31T01:02:02;36.20;;;20.90;;
43823;SDS011;29470;53.550;9.926;2022-10-31T01:07:07;41.85;;;21.73;;
43823;SDS011;29470;53.550;9.926;2022-10-31T01:12:11;43.70;;;22.70;;
43823;SDS011;29470;53.550;9.926;2022-10-31T01:17:14;42.13;;;22.75;;
43823;SDS011;29470;53.550;9.926;2022-10-31T01:22:22;40.80;;;22.63;;
43823;SDS011;29470;53.550;9.926;2022-10-31T01:27:24;48.60;;;23.73;;
43823;SDS011;29470;53.550;9.926;2022-10-31T01:32:27;38.50;;;22.83;;
43823;SDS011;29470;53.550;9.926;2022-10-31T01:37:33;44.25;;;23.85;;
43823;SDS011;29470;53.550;9.926;2022-10-31T01:42:36;45.53;;;24.25;;
43823;SDS011;29470;53.550;9.926;2022-10-31T01:47:41;44.30;;;23.73;;
43823;SDS011;29470;53.550;9.926;2022-10-31T01:52:49;42.33;;;23.40;;
43823;SDS011;29470;53.550;9.926;2022-10-31T01:57:55;44.90;;;24.15;;
43823;SDS011;29470;53.550;9.926;2022-10-31T02:08:07;49.75;;;24.77;;
43823;SDS011;29470;53.550;9.926;2022-10-31T02:13:16;55.33;;;26.40;;
43823;SDS011;29470;53.550;9.926;2022-10-31T02:18:23;49.60;;;26.70;;
43823;SDS011;29470;53.550;9.926;2022-10-31T02:23:38;55.75;;;27.60;;
43823;SDS011;29470;53.550;9.926;2022-10-31T02:29:16;54.30;;;27.83;;
43823;SDS011;29470;53.550;9.926;2022-10-31T02:34:37;55.83;;;28.40;;
43823;SDS011;29470;53.550;9.926;2022-10-31T02:39:48;57.60;;;28.88;;
43823;SDS011;29470;53.550;9.926;2022-10-31T02:45:11;61.63;;;28.95;;
43823;SDS011;29470;53.550;9.926;2022-10-31T02:50:25;57.63;;;27.88;;
43823;SDS011;29470;53.550;9.926;2022-10-31T02:55:50;56.75;;;28.33;;
43823;SDS011;29470;53.550;9.926;2022-10-31T03:01:02;54.25;;;28.05;;
43823;SDS011;29470;53.550;9.926;2022-10-31T03:06:30;53.45;;;28.15;;
43823;SDS011;29470;53.550;9.926;2022-10-31T03:11:39;59.88;;;28.63;;
43823;SDS011;29470;53.550;9.926;2022-10-31T03:16:48;68.95;;;30.90;;
43823;SDS011;29470;53.550;9.926;2022-10-31T03:21:55;63.65;;;29.38;;
43823;SDS011;29470;53.550;9.926;2022-10-31T03:27:02;70.57;;;31.88;;
43823;SDS011;29470;53.550;9.926;2022-10-31T03:32:08;68.85;;;33.22;;
43823;SDS011;29470;53.550;9.926;2022-10-31T03:37:19;78.10;;;33.53;;
43823;SDS011;29470;53.550;9.926;2022-10-31T03:42:25;74.25;;;33.08;;
43823;SDS011;29470;53.550;9.926;2022-10-31T03:47:32;83.00;;;34.70;;
43823;SDS011;29470;53.550;9.926;2022-10-31T03:52:39;86.50;;;35.85;;
43823;SDS011;29470;53.550;9.926;2022-10-31T03:57:50;84.57;;;33.47;;
43823;SDS011;29470;53.550;9.926;2022-10-31T04:02:58;75.50;;;34.65;;
43823;SDS011;29470;53.550;9.926;2022-10-31T04:08:11;74.55;;;30.80;;
43823;SDS011;29470;53.550;9.926;2022-10-31T04:13:20;72.63;;;31.15;;
43823;SDS011;29470;53.550;9.926;2022-10-31T04:18:42;81.97;;;31.83;;
43823;SDS011;29470;53.550;9.926;2022-10-31T04:23:46;74.93;;;32.95;;
43823;SDS011;29470;53.550;9.926;2022-10-31T04:28:55;70.85;;;30.63;;
43823;SDS011;29470;53.550;9.926;2022-10-31T04:34:00;68.40;;;31.08;;
43823;SDS011;29470;53.550;9.926;2022-10-31T04:39:05;76.18;;;31.63;;
43823;SDS011;29470;53.550;9.926;2022-10-31T04:44:28;78.88;;;32.45;;
43823;SDS011;29470;53.550;9.926;2022-10-31T04:49:34;79.90;;;33.22;;
43823;SDS011;29470;53.550;9.926;2022-10-31T04:54:38;80.57;;;34.42;;
43823;SDS011;29470;53.550;9.926;2022-10-31T05:00:00;85.65;;;36.10;;
43823;SDS011;29470;53.550;9.926;2022-10-31T05:05:04;83.03;;;35.95;;
43823;SDS011;29470;53.550;9.926;2022-10-31T05:10:11;86.07;;;36.40;;
43823;SDS011;29470;53.550;9.926;2022-10-31T05:15:15;87.53;;;35.58;;
43823;SDS011;29470;53.550;9.926;2022-10-31T05:26:04;80.97;;;33.42;;
43823;SDS011;29470;53.550;9.926;2022-10-31T05:31:07;76.90;;;33.72;;
43823;SDS011;29470;53.550;9.926;2022-10-31T05:36:10;79.00;;;31.98;;
43823;SDS011;29470;53.550;9.926;2022-10-31T05:41:34;72.13;;;30.75;;
43823;SDS011;29470;53.550;9.926;2022-10-31T05:46:49;74.68;;;29.45;;
43823;SDS011;29470;53.550;9.926;2022-10-31T05:52:11;102.63;;;33.83;;
43823;SDS011;29470;53.550;9.926;2022-10-31T05:57:24;84.82;;;31.27;;
43823;SDS011;29470;53.550;9.926;2022-10-31T06:02:27;76.70;;;29.70;;
43823;SDS011;29470;53.550;9.926;2022-10-31T06:07:53;70.53;;;29.83;;
43823;SDS011;29470;53.550;9.926;2022-10-31T06:12:59;89.40;;;30.60;;
43823;SDS011;29470;53.550;9.926;2022-10-31T06:18:08;71.20;;;29.77;;
43823;SDS011;29470;53.550;9.926;2022-10-31T06:23:21;62.95;;;27.50;;
43823;SDS011;29470;53.550;9.926;2022-10-31T06:28:31;66.53;;;27.75;;
43823;SDS011;29470;53.550;9.926;2022-10-31T06:33:45;61.15;;;26.20;;
43823;SDS011;29470;53.550;9.926;2022-10-31T06:38:48;77.00;;;27.67;;
43823;SDS011;29470;53.550;9.926;2022-10-31T06:43:55;52.83;;;24.48;;
43823;SDS011;29470;53.550;9.926;2022-10-31T06:49:17;57.65;;;27.77;;
43823;SDS011;29470;53.550;9.926;2022-10-31T06:54:33;50.88;;;24.33;;
43823;SDS011;29470;53.550;9.926;2022-10-31T06:59:44;47.50;;;23.70;;
43823;SDS011;29470;53.550;9.926;2022-10-31T07:04:59;45.45;;;22.75;;
43823;SDS011;29470;53.550;9.926;2022-10-31T07:10:02;46.50;;;22.75;;
43823;SDS011;29470;53.550;9.926;2022-10-31T07:15:20;41.70;;;20.38;;
43823;SDS011;29470;53.550;9.926;2022-10-31T07:20:23;41.25;;;20.38;;
43823;SDS011;29470;53.550;9.926;2022-10-31T07:25:26;49.78;;;19.25;;
43823;SDS011;29470;53.550;9.926;2022-10-31T07:30:52;83.38;;;19.50;;
43823;SDS011;29470;53.550;9.926;2022-10-31T07:35:56;71.53;;;19.25;;
43823;SDS011;29470;53.550;9.926;2022-10-31T07:41:03;36.00;;;17.27;;
43823;SDS011;29470;53.550;9.926;2022-10-31T07:46:13;39.17;;;17.45;;
43823;SDS011;29470;53.550;9.926;2022-10-31T07:51:35;34.03;;;16.85;;
43823;SDS011;29470;53.550;9.926;2022-10-31T07:56:46;31.85;;;16.60;;
43823;SDS011;29470;53.550;9.926;2022-10-31T08:01:51;39.03;;;16.35;;
43823;SDS011;29470;53.550;9.926;2022-10-31T08:07:20;33.25;;;16.10;;
43823;SDS011;29470;53.550;9.926;2022-10-31T08:12:33;43.63;;;17.23;;
43823;SDS011;29470;53.550;9.926;2022-10-31T08:17:39;36.42;;;14.63;;
43823;SDS011;29470;53.550;9.926;2022-10-31T08:22:52;25.70;;;14.90;;
43823;SDS011;29470;53.550;9.926;2022-10-31T08:27:56;30.40;;;16.63;;
43823;SDS011;29470;53.550;9.926;2022-10-31T08:33:02;26.73;;;15.18;;
43823;SDS011;29470;53.550;9.926;2022-10-31T08:38:25;23.30;;;13.95;;
43823;SDS011;29470;53.550;9.926;2022-10-31T08:43:29;19.88;;;12.43;;
43823;SDS011;29470;53.550;9.926;2022-10-31T08:48:33;21.35;;;12.15;;
43823;SDS011;29470;53.550;9.926;2022-10-31T08:53:39;24.92;;;12.55;;
43823;SDS011;29470;53.550;9.926;2022-10-31T08:59:03;21.95;;;12.55;;
43823;SDS011;29470;53.550;9.926;2022-10-31T09:04:51;22.63;;;13.27;;
43823;SDS011;29470;53.550;9.926;2022-10-31T09:09:53;27.55;;;13.48;;
43823;SDS011;29470;53.550;9.926;2022-10-31T09:14:57;20.98;;;13.10;;
43823;SDS011;29470;53.550;9.926;2022-10-31T09:20:12;23.45;;;13.18;;
43823;SDS011;29470;53.550;9.926;2022-10-31T09:25:15;23.95;;;14.02;;
43823;SDS011;29470;53.550;9.926;2022-10-31T09:30:25;28.42;;;14.85;;
43823;SDS011;29470;53.550;9.926;2022-10-31T09:35:30;27.90;;;14.45;;
43823;SDS011;29470;53.550;9.926;2022-10-31T09:40:34;29.02;;;15.70;;
43823;SDS011;29470;53.550;9.926;2022-10-31T09:45:39;31.02;;;16.15;;
43823;SDS011;29470;53.550;9.926;2022-10-31T09:51:07;31.60;;;16.52;;
43823;SDS011;29470;53.550;9.926;2022-10-31T09:56:17;37.20;;;17.95;;
43823;SDS011;29470;53.550;9.926;2022-10-31T10:01:28;40.80;;;19.42;;
43823;SDS011;29470;53.550;9.926;2022-10-31T10:06:38;38.17;;;18.40;;
43823;SDS011;29470;53.550;9.926;2022-10-31T10:12:12;43.63;;;20.52;;
43823;SDS011;29470;53.550;9.926;2022-10-31T10:17:25;39.25;;;18.38;;
43823;SDS011;29470;53.550;9.926;2022-10-31T10:22:40;39.70;;;18.35;;
43823;SDS011;29470;53.550;9.926;2022-10-31T10:27:50;39.95;;;17.60;;
43823;SDS011;29470;53.550;9.926;2022-10-31T10:33:03;36.80;;;17.08;;
43823;SDS011;29470;53.550;9.926;2022-10-31T10:38:15;39.95;;;17.45;;
43823;SDS011;29470;53.550;9.926;2022-10-31T10:43:23;38.50;;;18.92;;
43823;SDS011;29470;53.550;9.926;2022-10-31T10:48:30;35.38;;;17.48;;
43823;SDS011;29470;53.550;9.926;2022-10-31T10:53:46;35.03;;;16.63;;
43823;SDS011;29470;53.550;9.926;2022-10-31T10:59:11;33.83;;;17.20;;
43823;SDS011;29470;53.550;9.926;2022-10-31T11:04:28;35.28;;;18.92;;
43823;SDS011;29470;53.550;9.926;2022-10-31T11:09:35;35.05;;;17.48;;
43823;SDS011;29470;53.550;9.926;2022-10-31T11:14:42;42.65;;;18.65;;
43823;SDS011;29470;53.550;9.926;2022-10-31T11:19:48;47.33;;;19.38;;
43823;SDS011;29470;53.550;9.926;2022-10-31T11:25:11;44.00;;;20.90;;
43823;SDS011;29470;53.550;9.926;2022-10-31T11:30:22;45.00;;;22.00;;
43823;SDS011;29470;53.550;9.926;2022-10-31T11:35:26;46.72;;;22.85;;
43823;SDS011;29470;53.550;9.926;2022-10-31T11:40:32;45.88;;;21.63;;
43823;SDS011;29470;53.550;9.926;2022-10-31T11:45:35;40.22;;;21.02;;
43823;SDS011;29470;53.550;9.926;2022-10-31T11:50:39;49.45;;;22.50;;
43823;SDS011;29470;53.550;9.926;2022-10-31T11:55:45;42.13;;;20.17;;
43823;SDS011;29470;53.550;9.926;2022-10-31T12:00:49;37.83;;;19.35;;
43823;SDS011;29470;53.550;9.926;2022-10-31T12:05:53;36.47;;;18.83;;
43823;SDS011;29470;53.550;9.926;2022-10-31T12:11:03;37.20;;;19.30;;
43823;SDS011;29470;53.550;9.926;2022-10-31T12:16:15;36.22;;;20.17;;
43823;SDS011;29470;53.550;9.926;2022-10-31T12:21:41;40.63;;;21.50;;
43823;SDS011;29470;53.550;9.926;2022-10-31T12:26:57;39.78;;;21.05;;
43823;SDS011;29470;53.550;9.926;2022-10-31T12:32:15;35.15;;;20.08;;
43823;SDS011;29470;53.550;9.926;2022-10-31T12:37:38;35.13;;;18.88;;
43823;SDS011;29470;53.550;9.926;2022-10-31T12:42:54;35.67;;;19.38;;
43823;SDS011;29470;53.550;9.926;2022-10-31T12:48:16;28.57;;;15.60;;
43823;SDS011;29470;53.550;9.926;2022-10-31T12:53:36;31.40;;;17.42;;
43823;SDS011;29470;53.550;9.926;2022-10-31T12:58:51;33.00;;;16.42;;
43823;SDS011;29470;53.550;9.926;2022-10-31T13:03:58;29.83;;;16.20;;
43823;SDS011;29470;53.550;9.926;2022-10-31T13:14:13;29.52;;;15.50;;
43823;SDS011;29470;53.550;9.926;2022-10-31T13:19:22;27.65;;;14.73;;
43823;SDS011;29470;53.550;9.926;2022-10-31T13:24:30;23.70;;;13.63;;
43823;SDS011;29470;53.550;9.926;2022-10-31T13:29:39;24.10;;;14.13;;
43823;SDS011;29470;53.550;9.926;2022-10-31T13:34:52;22.13;;;11.98;;
43823;SDS011;29470;53.550;9.926;2022-10-31T13:40:05;21.27;;;12.03;;
43823;SDS011;29470;53.550;9.926;2022-10-31T13:45:18;22.85;;;13.02;;
43823;SDS011;29470;53.550;9.926;2022-10-31T13:50:24;20.48;;;13.15;;
43823;SDS011;29470;53.550;9.926;2022-10-31T13:55:34;21.52;;;11.98;;
43823;SDS011;29470;53.550;9.926;2022-10-31T14:00:39;21.58;;;12.48;;
43823;SDS011;29470;53.550;9.926;2022-10-31T14:05:42;24.38;;;13.35;;
43823;SDS011;29470;53.550;9.926;2022-10-31T14:10:53;23.80;;;14.23;;
43823;SDS011;29470;53.550;9.926;2022-10-31T14:16:00;26.27;;;13.32;;
43823;SDS011;29470;53.550;9.926;2022-10-31T14:21:13;21.70;;;12.10;;
43823;SDS011;29470;53.550;9.926;2022-10-31T14:26:19;22.55;;;11.80;;
43823;SDS011;29470;53.550;9.926;2022-10-31T14:31:36;21.75;;;11.35;;
43823;SDS011;29470;53.550;9.926;2022-10-31T14:36:50;20.52;;;11.40;;
43823;SDS011;29470;53.550;9.926;2022-10-31T14:42:10;27.50;;;12.47;;
43823;SDS011;29470;53.550;9.926;2022-10-31T14:47:31;22.85;;;12.60;;
43823;SDS011;29470;53.550;9.926;2022-10-31T14:52:41;24.98;;;12.45;;
43823;SDS011;29470;53.550;9.926;2022-10-31T14:57:50;22.80;;;12.98;;
43823;SDS011;29470;53.550;9.926;2022-10-31T15:03:00;26.60;;;12.93;;
43823;SDS011;29470;53.550;9.926;2022-10-31T15:08:25;23.77;;;13.45;;
43823;SDS011;29470;53.550;9.926;2022-10-31T15:13:34;26.13;;;12.25;;
43823;SDS011;29470;53.550;9.926;2022-10-31T15:18:48;23.23;;;12.75;;
43823;SDS011;29470;53.550;9.926;2022-10-31T15:23:54;25.75;;;11.82;;
43823;SDS011;29470;53.550;9.926;2022-10-31T15:29:00;23.13;;;12.07;;
43823;SDS011;29470;53.550;9.926;2022-10-31T15:34:14;22.35;;;11.82;;
43823;SDS011;29470;53.550;9.926;2022-10-31T15:39:21;25.02;;;12.38;;
43823;SDS011;29470;53.550;9.926;2022-10-31T15:44:27;23.63;;;12.50;;
43823;SDS011;29470;53.550;9.926;2022-10-31T15:49:35;23.30;;;12.45;;
43823;SDS011;29470;53.550;9.926;2022-10-31T15:54:44;28.53;;;13.77;;
43823;SDS011;29470;53.550;9.926;2022-10-31T15:59:49;28.17;;;13.55;;
43823;SDS011;29470;53.550;9.926;2022-10-31T16:04:54;28.52;;;15.15;;
43823;SDS011;29470;53.550;9.926;2022-10-31T16:10:00;30.17;;;14.15;;
43823;SDS011;29470;53.550;9.926;2022-10-31T16:15:12;30.05;;;14.35;;
43823;SDS011;29470;53.550;9.926;2022-10-31T16:20:20;28.20;;;13.80;;
43823;SDS011;29470;53.550;9.926;2022-10-31T16:25:27;31.38;;;14.10;;
43823;SDS011;29470;53.550;9.926;2022-10-31T16:30:37;29.83;;;13.88;;
43823;SDS011;29470;53.550;9.926;2022-10-31T16:35:58;31.98;;;12.50;;
43823;SDS011;29470;53.550;9.926;2022-10-31T16:41:23;30.15;;;12.55;;
43823;SDS011;29470;53.550;9.926;2022-10-31T16:46:27;26.70;;;12.10;;
43823;SDS011;29470;53.550;9.926;2022-10-31T16:51:31;31.98;;;13.35;;
43823;SDS011;29470;53.550;9.926;2022-10-31T16:56:34;29.80;;;13.30;;
43823;SDS011;29470;53.550;9.926;2022-10-31T17:01:39;31.00;;;12.85;;
43823;SDS011;29470;53.550;9.926;2022-10-31T17:11:50;29.65;;;13.27;;
43823;SDS011;29470;53.550;9.926;2022-10-31T17:16:55;31.27;;;14.07;;
43823;SDS011;29470;53.550;9.926;2022-10-31T17:22:02;30.73;;;13.65;;
43823;SDS011;29470;53.550;9.926;2022-10-31T17:27:05;34.58;;;13.48;;
43823;SDS011;29470;53.550;9.926;2022-10-31T17:32:08;30.15;;;14.20;;
43823;SDS011;29470;53.550;9.926;2022-10-31T17:37:12;32.53;;;13.68;;
43823;SDS011;29470;53.550;9.926;2022-10-31T17:42:15;32.13;;;14.43;;
43823;SDS011;29470;53.550;9.926;2022-10-31T17:47:18;27.73;;;13.27;;
43823;SDS011;29470;53.550;9.926;2022-10-31T17:52:22;33.10;;;14.02;;
43823;SDS011;29470;53.550;9.926;2022-10-31T17:57:26;30.48;;;14.00;;
43823;SDS011;29470;53.550;9.926;2022-10-31T18:02:35;31.60;;;13.83;;
43823;SDS011;29470;53.550;9.926;2022-10-31T18:07:40;30.38;;;13.80;;
43823;SDS011;29470;53.550;9.926;2022-10-31T18:12:43;28.63;;;13.68;;
43823;SDS011;29470;53.550;9.926;2022-10-31T18:17:45;32.40;;;15.50;;
43823;SDS011;29470;53.550;9.926;2022-10-31T18:22:51;34.13;;;15.63;;
43823;SDS011;29470;53.550;9.926;2022-10-31T18:27:54;31.98;;;13.90;;
43823;SDS011;29470;53.550;9.926;2022-10-31T18:32:58;36.17;;;15.23;;
43823;SDS011;29470;53.550;9.926;2022-10-31T18:38:04;33.35;;;14.93;;
43823;SDS011;29470;53.550;9.926;2022-10-31T18:43:10;35.78;;;15.57;;
43823;SDS011;29470;53.550;9.926;2022-10-31T18:48:13;34.55;;;14.73;;
43823;SDS011;29470;53.550;9.926;2022-10-31T18:53:19;37.42;;;15.55;;
43823;SDS011;29470;53.550;9.926;2022-10-31T18:58:22;36.47;;;16.48;;
43823;SDS011;29470;53.550;9.926;2022-10-31T19:03:26;39.63;;;17.83;;
43823;SDS011;29470;53.550;9.926;2022-10-31T19:08:31;40.70;;;17.02;;
43823;SDS011;29470;53.550;9.926;2022-10-31T19:13:35;36.97;;;16.48;;
43823;SDS011;29470;53.550;9.926;2022-10-31T19:18:38;35.30;;;16.70;;
43823;SDS011;29470;53.550;9.926;2022-10-31T19:23:44;36.17;;;16.77;;
43823;SDS011;29470;53.550;9.926;2022-10-31T19:28:51;34.85;;;17.08;;
43823;SDS011;29470;53.550;9.926;2022-10-31T19:33:56;43.42;;;18.42;;
43823;SDS011;29470;53.550;9.926;2022-10-31T19:39:00;32.67;;;16.25;;
43823;SDS011;29470;53.550;9.926;2022-10-31T19:44:04;32.70;;;16.20;;
43823;SDS011;29470;53.550;9.926;2022-10-31T19:54:32;36.78;;;16.60;;
43823;SDS011;29470;53.550;9.926;2022-10-31T20:05:43;34.63;;;16.48;;
43823;SDS011;29470;53.550;9.926;2022-10-31T20:16:20;43.53;;;17.13;;
43823;SDS011;29470;53.550;9.926;2022-10-31T20:21:24;37.13;;;16.10;;
43823;SDS011;29470;53.550;9.926;2022-10-31T20:26:31;41.08;;;16.10;;
43823;SDS011;29470;53.550;9.926;2022-10-31T20:31:36;41.83;;;16.83;;
43823;SDS011;29470;53.550;9.926;2022-10-31T20:36:41;40.67;;;16.02;;
43823;SDS011;29470;53.550;9.926;2022-10-31T20:41:53;43.60;;;17.83;;
43823;SDS011;29470;53.550;9.926;2022-10-31T20:46:58;40.15;;;17.45;;
43823;SDS011;29470;53.550;9.926;2022-10-31T20:52:02;43.17;;;18.00;;
43823;SDS011;29470;53.550;9.926;2022-10-31T20:57:07;43.85;;;18.00;;
43823;SDS011;29470;53.550;9.926;2022-10-31T21:02:10;50.13;;;19.48;;
43823;SDS011;29470;53.550;9.926;2022-10-31T21:07:13;52.42;;;20.40;;
43823;SDS011;29470;53.550;9.926;2022-10-31T21:12:18;50.60;;;21.63;;
43823;SDS011;29470;53.550;9.926;2022-10-31T21:17:20;51.65;;;20.50;;
43823;SDS011;29470;53.550;9.926;2022-10-31T21:22:23;48.75;;;20.30;;
43823;SDS011;29470;53.550;9.926;2022-10-31T21:27:28;52.47;;;21.15;;
43823;SDS011;29470;53.550;9.926;2022-10-31T21:32:32;51.38;;;19.58;;
43823;SDS011;29470;53.550;9.926;2022-10-31T21:37:35;49.40;;;20.13;;
43823;SDS011;29470;53.550;9.926;2022-10-31T21:42:40;56.90;;;21.50;;
43823;SDS011;29470;53.550;9.926;2022-10-31T21:47:43;47.42;;;19.88;;
43823;SDS011;29470;53.550;9.926;2022-10-31T21:52:46;49.20;;;20.13;;
43823;SDS011;29470;53.550;9.926;2022-10-31T21:57:50;53.95;;;21.48;;
43823;SDS011;29470;53.550;9.926;2022-10-31T22:02:53;57.30;;;23.20;;
43823;SDS011;29470;53.550;9.926;2022-10-31T22:07:56;58.28;;;22.83;;
43823;SDS011;29470;53.550;9.926;2022-10-31T22:13:05;58.10;;;23.38;;
43823;SDS011;29470;53.550;9.926;2022-10-31T22:18:08;56.20;;;22.48;;
43823;SDS011;29470;53.550;9.926;2022-10-31T22:23:11;57.53;;;23.52;;
43823;SDS011;29470;53.550;9.926;2022-10-31T22:28:16;53.67;;;23.10;;
43823;SDS011;29470;53.550;9.926;2022-10-31T22:33:19;65.35;;;24.67;;
43823;SDS011;29470;53.550;9.926;2022-10-31T22:38:22;65.35;;;25.10;;
43823;SDS011;29470;53.550;9.926;2022-10-31T22:43:26;67.90;;;25.75;;
43823;SDS011;29470;53.550;9.926;2022-10-31T22:48:30;67.57;;;26.35;;
43823;SDS011;29470;53.550;9.926;2022-10-31T22:53:36;59.67;;;22.45;;
43823;SDS011;29470;53.550;9.926;2022-10-31T22:58:41;58.47;;;23.35;;
43823;SDS011;29470;53.550;9.926;2022-10-31T23:03:44;59.67;;;21.90;;
43823;SDS011;29470;53.550;9.926;2022-10-31T23:08:48;62.13;;;23.70;;
43823;SDS011;29470;53.550;9.926;2022-10-31T23:13:54;60.60;;;23.98;;
43823;SDS011;29470;53.550;9.926;2022-10-31T23:19:11;53.20;;;21.90;;
43823;SDS011;29470;53.550;9.926;2022-10-31T23:24:16;58.63;;;23.13;;
43823;SDS011;29470;53.550;9.926;2022-10-31T23:29:20;57.50;;;21.63;;
43823;SDS011;29470;53.550;9.926;2022-10-31T23:34:23;57.17;;;22.73;;
43823;SDS011;29470;53.550;9.926;2022-10-31T23:39:25;57.90;;;23.67;;
43823;SDS011;29470;53.550;9.926;2022-10-31T23:44:29;60.60;;;24.08;;
43823;SDS011;29470;53.550;9.926;2022-10-31T23:49:32;63.00;;;25.50;;
43823;SDS011;29470;53.550;9.926;2022-10-31T23:54:35;54.33;;;22.90;;
43823;SDS011;29470;53.550;9.926;2022-10-31T23:59:40;53.65;;;22.67;;
